createdAt,value
2022-09-13T00:01:04.327Z,1.00
2022-09-13T00:03:31.151Z,1.00
2022-09-13T00:05:58.137Z,1.00
2022-09-13T00:08:24.713Z,1.00
2022-09-13T00:10:51.353Z,1.00
2022-09-13T00:13:18.259Z,1.00
2022-09-13T00:15:49.970Z,1.00
2022-09-13T00:18:17.657Z,1.00
2022-09-13T00:20:44.331Z,1.00
2022-09-13T00:23:11.771Z,1.00
2022-09-13T00:25:38.870Z,1.00
2022-09-13T00:28:05.745Z,1.00
2022-09-13T00:30:33.345Z,1.00
2022-09-13T00:33:00.100Z,1.00
2022-09-13T00:35:26.676Z,1.00
2022-09-13T00:37:53.312Z,1.00
2022-09-13T00:40:21.769Z,1.00
2022-09-13T00:42:48.440Z,1.00
2022-09-13T00:45:17.186Z,1.00
2022-09-13T00:47:46.856Z,1.00
2022-09-13T00:50:22.633Z,1.00
2022-09-13T00:53:08.134Z,1.00
2022-09-13T00:55:51.682Z,1.00
2022-09-13T00:58:23.823Z,1.00
2022-09-13T01:00:51.382Z,1.00
2022-09-13T01:03:21.667Z,1.00
2022-09-13T01:05:55.943Z,1.00
2022-09-13T01:08:23.235Z,1.00
2022-09-13T01:10:51.793Z,1.00
2022-09-13T01:13:26.333Z,1.00
2022-09-13T01:15:53.148Z,1.00
2022-09-13T01:18:20.106Z,1.00
2022-09-13T01:21:24.352Z,1.00
2022-09-13T01:24:13.740Z,1.00
2022-09-13T01:27:12.714Z,1.00
2022-09-13T01:30:06.470Z,1.00
2022-09-13T01:32:36.077Z,1.00
2022-09-13T01:35:19.373Z,1.00
2022-09-13T01:37:54.807Z,1.00
2022-09-13T01:40:39.124Z,1.00
2022-09-13T01:43:15.077Z,1.00
2022-09-13T01:45:50.136Z,1.00
2022-09-13T01:48:20.676Z,1.00
2022-09-13T01:51:02.683Z,1.00
2022-09-13T01:54:10.864Z,1.00
2022-09-13T01:56:40.466Z,1.00
2022-09-13T01:59:18.572Z,1.00
2022-09-13T02:02:00.842Z,1.00
2022-09-13T02:04:36.670Z,1.00
2022-09-13T02:07:14.209Z,1.00
2022-09-13T02:09:48.786Z,1.00
2022-09-13T02:12:28.356Z,1.00
2022-09-13T02:15:18.480Z,1.00
2022-09-13T02:17:54.576Z,1.00
2022-09-13T02:20:26.672Z,1.00
2022-09-13T02:22:59.190Z,1.00
2022-09-13T02:25:27.664Z,1.00
2022-09-13T02:27:59.875Z,1.00
2022-09-13T02:30:28.450Z,1.00
2022-09-13T02:33:10.604Z,1.00
2022-09-13T02:35:42.376Z,1.00
2022-09-13T02:38:15.263Z,1.00
2022-09-13T02:41:00.178Z,1.00
2022-09-13T02:43:37.833Z,1.00
2022-09-13T02:46:13.617Z,1.00
2022-09-13T02:49:04.932Z,1.00
2022-09-13T02:51:54.930Z,1.00
2022-09-13T02:54:32.003Z,1.00
2022-09-13T02:57:07.488Z,1.00
2022-09-13T02:59:34.420Z,1.00
2022-09-13T03:02:03.937Z,1.00
2022-09-13T03:04:30.842Z,1.00
2022-09-13T03:06:57.452Z,1.00
2022-09-13T03:09:24.626Z,1.00
2022-09-13T03:12:19.615Z,1.00
2022-09-13T03:15:07.553Z,1.00
2022-09-13T03:17:50.941Z,1.00
2022-09-13T03:20:36.162Z,1.00
2022-09-13T03:23:20.403Z,1.00
2022-09-13T03:25:53.750Z,1.00
2022-09-13T03:28:45.556Z,1.00
2022-09-13T03:31:28.807Z,1.00
2022-09-13T03:34:08.665Z,1.00
2022-09-13T03:36:49.722Z,1.00
2022-09-13T03:39:32.327Z,1.00
2022-09-13T03:42:05.413Z,1.00
2022-09-13T03:44:34.270Z,1.00
2022-09-13T03:47:03.996Z,1.00
2022-09-13T03:49:32.044Z,1.00
2022-09-13T03:51:59.144Z,1.00
2022-09-13T03:54:34.075Z,1.00
2022-09-13T03:57:14.149Z,1.00
2022-09-13T03:59:47.324Z,1.00
2022-09-13T04:02:15.401Z,1.00
2022-09-13T04:04:43.420Z,1.00
2022-09-13T04:07:13.074Z,1.00
2022-09-13T04:09:39.847Z,1.00
2022-09-13T04:12:06.680Z,1.00
2022-09-13T04:14:33.502Z,1.00
2022-09-13T04:17:00.311Z,1.00
2022-09-13T04:19:27.080Z,1.00
2022-09-13T04:21:55.839Z,1.00
2022-09-13T04:24:28.869Z,1.00
2022-09-13T04:26:56.456Z,1.00
2022-09-13T04:29:25.068Z,1.00
2022-09-13T04:31:54.189Z,1.00
2022-09-13T04:34:22.993Z,1.00
2022-09-13T04:36:53.825Z,1.00
2022-09-13T04:39:21.196Z,1.00
2022-09-13T04:41:48.819Z,1.00
2022-09-13T04:44:17.204Z,1.00
2022-09-13T04:46:48.190Z,1.00
2022-09-13T04:49:16.569Z,1.00
2022-09-13T04:51:43.499Z,1.00
2022-09-13T04:54:15.223Z,1.00
2022-09-13T04:56:47.040Z,1.00
2022-09-13T04:59:13.902Z,1.00
2022-09-13T05:01:41.190Z,1.00
2022-09-13T05:04:08.100Z,1.00
2022-09-13T05:06:35.240Z,1.00
2022-09-13T05:09:02.810Z,1.00
2022-09-13T05:11:30.170Z,1.00
2022-09-13T05:13:59.100Z,1.00
2022-09-13T05:16:28.589Z,1.00
2022-09-13T05:18:55.876Z,1.00
2022-09-13T05:21:22.703Z,1.00
2022-09-13T05:23:51.507Z,1.00
2022-09-13T05:26:18.732Z,1.00
2022-09-13T05:28:45.385Z,1.00
2022-09-13T05:31:21.573Z,1.00
2022-09-13T05:33:54.096Z,1.00
2022-09-13T05:36:20.762Z,1.00
2022-09-13T05:38:47.410Z,1.00
2022-09-13T05:41:14.006Z,1.00
2022-09-13T05:43:40.596Z,1.00
2022-09-13T05:46:15.028Z,1.00
2022-09-13T05:48:42.510Z,1.00
2022-09-13T05:51:20.851Z,1.00
2022-09-13T05:53:50.156Z,1.00
2022-09-13T05:56:25.403Z,1.00
2022-09-13T05:58:53.162Z,1.00
2022-09-13T06:01:25.586Z,1.00
2022-09-13T06:03:55.108Z,1.00
2022-09-13T06:06:23.164Z,1.00
2022-09-13T06:08:53.604Z,1.00
2022-09-13T06:11:20.207Z,1.00
2022-09-13T06:13:46.914Z,1.00
2022-09-13T06:16:14.870Z,1.00
2022-09-13T06:18:41.621Z,1.00
2022-09-13T06:21:11.031Z,1.00
2022-09-13T06:23:38.539Z,1.00
2022-09-13T06:26:08.392Z,1.00
2022-09-13T06:28:47.007Z,1.00
2022-09-13T06:31:14.997Z,1.00
2022-09-13T06:33:42.971Z,1.00
2022-09-13T06:36:13.665Z,1.00
2022-09-13T06:38:40.971Z,1.00
2022-09-13T06:41:12.971Z,1.00
2022-09-13T06:43:40.092Z,1.00
2022-09-13T06:46:09.769Z,1.00
2022-09-13T06:48:38.692Z,1.00
2022-09-13T06:51:09.607Z,1.00
2022-09-13T06:53:38.269Z,1.00
2022-09-13T06:56:07.609Z,1.00
2022-09-13T06:58:35.693Z,1.00
2022-09-13T07:01:13.347Z,1.00
2022-09-13T07:03:48.500Z,1.00
2022-09-13T07:06:22.017Z,1.00
2022-09-13T07:08:50.306Z,1.00
2022-09-13T07:11:18.774Z,1.00
2022-09-13T07:13:53.168Z,1.00
2022-09-13T07:16:22.140Z,1.00
2022-09-13T07:18:56.603Z,1.00
2022-09-13T07:21:24.139Z,1.00
2022-09-13T07:23:52.399Z,1.00
2022-09-13T07:26:19.622Z,1.00
2022-09-13T07:28:48.777Z,1.00
2022-09-13T07:31:18.594Z,1.00
2022-09-13T07:33:45.562Z,1.00
2022-09-13T07:36:13.439Z,1.00
2022-09-13T07:38:42.451Z,1.00
2022-09-13T07:41:15.517Z,1.00
2022-09-13T07:43:42.673Z,1.00
2022-09-13T07:46:14.699Z,1.00
2022-09-13T07:48:43.428Z,1.00
2022-09-13T07:51:18.630Z,1.00
2022-09-13T07:53:52.584Z,1.00
2022-09-13T07:56:25.751Z,1.00
2022-09-13T07:58:55.047Z,1.00
2022-09-13T08:01:27.572Z,1.00
2022-09-13T08:03:56.917Z,1.00
2022-09-13T08:06:25.185Z,1.00
2022-09-13T08:08:53.218Z,1.00
2022-09-13T08:11:25.560Z,1.00
2022-09-13T08:13:53.177Z,99.90
2022-09-13T08:16:22.460Z,1.00
2022-09-13T08:18:55.054Z,1.00
2022-09-13T08:21:22.690Z,60.10
2022-09-13T08:23:49.388Z,99.90
2022-09-13T08:26:17.210Z,1.00
2022-09-13T08:28:43.999Z,1.00
2022-09-13T08:31:17.747Z,99.90
2022-09-13T08:33:46.916Z,1.00
2022-09-13T08:36:15.571Z,1.00
2022-09-13T08:38:49.882Z,99.90
2022-09-13T08:41:41.980Z,99.90
2022-09-13T08:44:27.230Z,99.90
2022-09-13T08:47:19.867Z,99.90
2022-09-13T08:49:50.174Z,1.00
2022-09-13T08:52:30.464Z,99.90
2022-09-13T08:54:59.228Z,99.90
2022-09-13T08:57:42.779Z,1.00
2022-09-13T09:00:29.316Z,99.90
2022-09-13T09:03:22.193Z,1.00
2022-09-13T09:05:50.969Z,99.90
2022-09-13T09:08:52.549Z,1.00
2022-09-13T09:11:30.348Z,1.00
2022-09-13T09:14:29.077Z,1.00
2022-09-13T09:17:04.922Z,99.90
2022-09-13T09:19:36.417Z,99.90
2022-09-13T09:22:07.157Z,99.90
2022-09-13T09:24:36.914Z,99.90
2022-09-13T09:27:14.306Z,99.90
2022-09-13T09:29:44.120Z,99.90
2022-09-13T09:32:29.346Z,99.90
2022-09-13T09:35:21.195Z,99.90
2022-09-13T09:38:21.812Z,99.90
2022-09-13T09:40:48.550Z,99.90
2022-09-13T09:43:22.183Z,99.90
2022-09-13T09:45:52.715Z,99.90
2022-09-13T09:48:24.006Z,99.90
2022-09-13T09:50:53.213Z,99.90
2022-09-13T09:53:37.114Z,99.90
2022-09-13T09:56:20.584Z,99.90
2022-09-13T09:58:47.432Z,99.90
2022-09-13T10:01:28.139Z,99.90
2022-09-13T10:04:01.130Z,99.90
2022-09-13T10:06:29.967Z,94.00
2022-09-13T10:09:00.318Z,93.60
2022-09-13T10:11:54.261Z,86.10
2022-09-13T10:14:46.696Z,91.10
2022-09-13T10:17:27.866Z,91.10
2022-09-13T10:20:01.961Z,81.30
2022-09-13T10:22:30.451Z,92.50
2022-09-13T10:25:23.577Z,94.20
2022-09-13T10:27:56.907Z,77.40
2022-09-13T10:30:36.033Z,58.90
2022-09-13T10:33:03.837Z,60.50
2022-09-13T10:35:31.449Z,52.50
2022-09-13T10:37:58.193Z,55.60
2022-09-13T10:40:34.015Z,49.30
2022-09-13T10:43:04.827Z,47.80
2022-09-13T10:45:32.237Z,44.40
2022-09-13T10:48:10.282Z,43.50
2022-09-13T10:50:37.491Z,40.60
2022-09-13T10:53:05.532Z,41.30
2022-09-13T10:55:40.842Z,42.10
2022-09-13T10:58:07.615Z,37.80
2022-09-13T11:00:44.928Z,42.10
2022-09-13T11:03:33.744Z,43.30
2022-09-13T11:06:42.323Z,38.60
2022-09-13T11:09:17.752Z,38.30
2022-09-13T11:12:04.114Z,36.00
2022-09-13T11:14:48.897Z,37.50
2022-09-13T11:17:37.249Z,35.80
2022-09-13T11:20:30.161Z,39.70
2022-09-13T11:23:13.337Z,30.90
2022-09-13T11:25:53.820Z,32.70
2022-09-13T11:29:04.331Z,34.10
2022-09-13T11:31:38.752Z,31.70
2022-09-13T11:34:21.768Z,29.70
2022-09-13T11:36:58.677Z,32.80
2022-09-13T11:39:40.967Z,34.30
2022-09-13T11:42:32.705Z,34.70
2022-09-13T11:45:37.698Z,35.70
2022-09-13T11:48:26.270Z,26.20
2022-09-13T11:51:06.018Z,28.40
2022-09-13T11:54:11.595Z,27.50
2022-09-13T11:56:41.058Z,33.20
2022-09-13T11:59:35.273Z,26.60
2022-09-13T12:02:15.702Z,24.40
2022-09-13T12:05:20.500Z,18.50
2022-09-13T12:07:50.260Z,18.80
2022-09-13T12:10:35.202Z,17.10
2022-09-13T12:13:03.074Z,11.70
2022-09-13T12:15:36.832Z,14.00
2022-09-13T12:18:31.158Z,7.60
2022-09-13T12:21:14.384Z,4.00
2022-09-13T12:23:58.439Z,3.80
2022-09-13T12:26:41.867Z,3.80
2022-09-13T12:29:14.566Z,2.10
2022-09-13T12:31:41.408Z,1.00
2022-09-13T12:34:15.235Z,1.00
2022-09-13T12:37:08.892Z,1.00
2022-09-13T12:40:11.695Z,1.00
2022-09-13T12:43:01.630Z,2.10
2022-09-13T12:45:43.681Z,1.00
2022-09-13T12:48:24.751Z,1.00
2022-09-13T12:51:14.669Z,1.00
2022-09-13T12:53:52.340Z,1.00
2022-09-13T12:56:39.786Z,1.00
2022-09-13T12:59:24.643Z,1.00
2022-09-13T13:01:52.369Z,1.00
2022-09-13T13:04:33.554Z,1.00
2022-09-13T13:07:06.720Z,1.00
2022-09-13T13:09:48.221Z,1.00
2022-09-13T13:12:35.712Z,1.00
2022-09-13T13:15:07.708Z,1.00
2022-09-13T13:17:38.683Z,1.00
2022-09-13T13:20:46.029Z,1.00
2022-09-13T13:23:31.084Z,1.00
2022-09-13T13:26:01.063Z,1.00
2022-09-13T13:28:50.562Z,1.00
2022-09-13T13:31:32.182Z,1.00
2022-09-13T13:34:03.083Z,1.00
2022-09-13T13:36:42.362Z,1.00
2022-09-13T13:39:33.675Z,1.00
2022-09-13T13:42:13.154Z,1.00
2022-09-13T13:44:43.204Z,1.00
2022-09-13T13:47:09.726Z,1.00
2022-09-13T13:49:39.108Z,1.00
2022-09-13T13:52:25.653Z,1.00
2022-09-13T13:54:55.608Z,1.00
2022-09-13T13:57:50.345Z,1.00
2022-09-13T14:00:21.391Z,1.00
2022-09-13T14:03:18.197Z,4.70
2022-09-13T14:06:28.686Z,2.90
2022-09-13T14:11:34.610Z,5.90
2022-09-13T14:14:04.551Z,12.20
2022-09-13T14:16:57.892Z,10.20
2022-09-13T14:19:32.079Z,8.00
2022-09-13T14:22:18.261Z,13.60
2022-09-13T14:24:48.627Z,12.50
2022-09-13T14:27:30.474Z,12.60
2022-09-13T14:30:04.380Z,12.20
2022-09-13T14:32:41.982Z,13.90
2022-09-13T14:35:32.114Z,17.50
2022-09-13T14:38:23.397Z,20.40
2022-09-13T14:40:52.570Z,18.70
2022-09-13T14:43:22.518Z,22.50
2022-09-13T14:46:14.785Z,23.10
2022-09-13T14:48:51.732Z,22.30
2022-09-13T14:51:27.293Z,31.40
2022-09-13T14:54:01.472Z,45.40
2022-09-13T14:56:43.531Z,38.20
2022-09-13T14:59:38.794Z,42.50
2022-09-13T15:02:14.933Z,56.00
2022-09-13T15:04:46.374Z,99.90
2022-09-13T15:07:34.609Z,99.90
2022-09-13T15:10:21.116Z,1.00
2022-09-13T15:12:58.681Z,99.90
2022-09-13T15:15:31.115Z,1.00
2022-09-13T15:18:25.935Z,99.90
2022-09-13T15:21:07.084Z,99.90
2022-09-13T15:23:43.153Z,1.00
2022-09-13T15:26:21.096Z,1.00
2022-09-13T15:28:47.656Z,1.00
2022-09-13T15:31:22.673Z,1.00
2022-09-13T15:33:49.876Z,1.00
2022-09-13T15:36:28.591Z,1.00
2022-09-13T15:39:20.110Z,1.00
2022-09-13T15:42:00.736Z,99.90
2022-09-13T15:44:29.863Z,1.00
2022-09-13T15:47:02.382Z,99.90
2022-09-13T15:49:29.348Z,1.00
2022-09-13T15:52:01.805Z,1.00
2022-09-13T15:54:39.641Z,99.90
2022-09-13T15:57:09.080Z,99.90
2022-09-13T15:59:36.352Z,1.00
2022-09-13T16:02:33.377Z,99.90
2022-09-13T16:05:00.019Z,1.00
2022-09-13T16:07:27.437Z,1.00
2022-09-13T16:09:54.286Z,99.90
2022-09-13T16:12:24.328Z,99.90
2022-09-13T16:14:50.969Z,99.90
2022-09-13T16:17:27.835Z,1.00
2022-09-13T16:19:54.884Z,99.90
2022-09-13T16:22:22.337Z,92.70
2022-09-13T16:24:49.169Z,94.00
2022-09-13T16:27:18.126Z,1.00
2022-09-13T16:29:45.447Z,11.20
2022-09-13T16:32:12.559Z,99.90
2022-09-13T16:34:39.514Z,1.00
2022-09-13T16:37:06.415Z,99.90
2022-09-13T16:39:33.052Z,99.90
2022-09-13T16:42:00.912Z,99.90
2022-09-13T16:44:27.480Z,99.90
2022-09-13T16:46:54.118Z,99.90
2022-09-13T16:49:20.755Z,99.90
2022-09-13T16:51:47.440Z,99.90
2022-09-13T16:54:14.231Z,99.90
2022-09-13T16:56:41.455Z,1.00
2022-09-13T16:59:09.143Z,1.00
2022-09-13T17:01:36.311Z,1.00
2022-09-13T17:04:03.678Z,1.00
2022-09-13T17:06:30.309Z,1.00
2022-09-13T17:09:02.335Z,1.00
2022-09-13T17:11:32.163Z,1.00
2022-09-13T17:13:59.720Z,1.00
2022-09-13T17:16:30.221Z,1.00
2022-09-13T17:18:59.690Z,1.00
2022-09-13T17:21:27.522Z,1.00
2022-09-13T17:23:54.696Z,1.00
2022-09-13T17:26:21.976Z,1.00
2022-09-13T17:28:48.707Z,1.00
2022-09-13T17:31:15.689Z,1.00
2022-09-13T17:33:42.388Z,1.00
2022-09-13T17:36:11.461Z,6.80
2022-09-13T17:38:38.494Z,8.00
2022-09-13T17:41:14.472Z,6.70
2022-09-13T17:43:42.866Z,19.30
2022-09-13T17:46:22.225Z,18.90
2022-09-13T17:48:51.828Z,19.30
2022-09-13T17:51:20.469Z,27.50
2022-09-13T17:53:52.925Z,26.90
2022-09-13T17:56:22.390Z,26.50
2022-09-13T17:58:49.646Z,28.10
2022-09-13T18:01:16.520Z,39.40
2022-09-13T18:03:43.840Z,31.70
2022-09-13T18:06:12.503Z,40.50
2022-09-13T18:08:39.439Z,40.70
2022-09-13T18:11:13.968Z,35.50
2022-09-13T18:13:42.998Z,36.20
2022-09-13T18:16:21.196Z,34.90
2022-09-13T18:18:49.700Z,37.10
2022-09-13T18:21:20.719Z,41.30
2022-09-13T18:23:49.207Z,43.00
2022-09-13T18:26:19.195Z,31.20
2022-09-13T18:28:46.429Z,33.70
2022-09-13T18:31:18.341Z,45.20
2022-09-13T18:33:45.634Z,44.50
2022-09-13T18:36:14.594Z,48.80
2022-09-13T18:38:43.535Z,50.60
2022-09-13T18:41:34.585Z,58.60
2022-09-13T18:44:01.743Z,58.80
2022-09-13T18:46:31.690Z,59.30
2022-09-13T18:48:58.872Z,60.70
2022-09-13T18:51:32.030Z,57.10
2022-09-13T18:53:59.904Z,56.50
2022-09-13T18:56:27.796Z,57.20
2022-09-13T18:58:55.786Z,57.90
2022-09-13T19:01:31.420Z,49.00
2022-09-13T19:04:01.468Z,51.00
2022-09-13T19:06:36.894Z,54.60
2022-09-13T19:09:04.696Z,52.00
2022-09-13T19:11:52.594Z,48.40
2022-09-13T19:14:25.315Z,46.20
2022-09-13T19:16:53.786Z,42.50
2022-09-13T19:19:20.702Z,48.50
2022-09-13T19:21:47.528Z,50.40
2022-09-13T19:24:19.468Z,51.70
2022-09-13T19:26:48.454Z,49.30
2022-09-13T19:29:18.176Z,53.60
2022-09-13T19:31:50.717Z,50.70
2022-09-13T19:34:19.154Z,55.70
2022-09-13T19:36:46.103Z,55.20
2022-09-13T19:39:12.740Z,49.00
2022-09-13T19:41:41.327Z,50.50
2022-09-13T19:44:09.328Z,49.20
2022-09-13T19:46:39.057Z,52.30
2022-09-13T19:49:08.105Z,55.50
2022-09-13T19:51:37.345Z,58.90
2022-09-13T19:54:06.144Z,62.10
2022-09-13T19:56:35.952Z,66.70
2022-09-13T19:59:03.748Z,62.90
2022-09-13T20:01:33.663Z,55.90
2022-09-13T20:04:03.604Z,58.60
2022-09-13T20:06:36.679Z,59.80
2022-09-13T20:09:04.524Z,64.90
2022-09-13T20:11:32.112Z,62.70
2022-09-13T20:14:00.271Z,61.50
2022-09-13T20:16:29.343Z,57.40
2022-09-13T20:18:59.916Z,58.90
2022-09-13T20:21:28.357Z,59.90
2022-09-13T20:23:58.864Z,64.70
2022-09-13T20:26:26.680Z,64.60
2022-09-13T20:28:58.704Z,69.30
2022-09-13T20:31:26.143Z,68.90
2022-09-13T20:34:00.921Z,68.90
2022-09-13T20:36:30.059Z,67.50
2022-09-13T20:39:02.311Z,64.40
2022-09-13T20:41:32.233Z,65.80
2022-09-13T20:44:01.856Z,67.50
2022-09-13T20:46:31.295Z,68.10
2022-09-13T20:48:58.215Z,64.40
2022-09-13T20:51:25.441Z,68.90
2022-09-13T20:53:57.471Z,69.70
2022-09-13T20:56:24.599Z,68.00
2022-09-13T20:58:57.081Z,68.10
2022-09-13T21:01:24.485Z,70.40
2022-09-13T21:03:53.399Z,70.40
2022-09-13T21:06:21.146Z,71.80
2022-09-13T21:08:49.992Z,72.70
2022-09-13T21:11:19.932Z,72.60
2022-09-13T21:13:54.374Z,73.10
2022-09-13T21:16:23.295Z,73.40
2022-09-13T21:18:50.930Z,76.30
2022-09-13T21:21:24.194Z,74.50
2022-09-13T21:23:51.723Z,75.70
2022-09-13T21:26:20.661Z,75.40
2022-09-13T21:28:47.617Z,73.60
2022-09-13T21:31:21.981Z,72.30
2022-09-13T21:33:58.070Z,69.40
2022-09-13T21:36:25.967Z,69.80
2022-09-13T21:38:54.376Z,72.30
2022-09-13T21:41:22.456Z,72.90
2022-09-13T21:43:49.476Z,72.40
2022-09-13T21:46:17.872Z,72.20
2022-09-13T21:48:50.255Z,70.70
2022-09-13T21:51:26.498Z,69.50
2022-09-13T21:53:58.677Z,69.60
2022-09-13T21:56:28.076Z,70.60
2022-09-13T21:59:00.386Z,71.40
2022-09-13T22:01:29.869Z,71.00
2022-09-13T22:03:57.707Z,73.90
2022-09-13T22:06:24.983Z,74.70
2022-09-13T22:08:56.383Z,72.10
2022-09-13T22:11:31.134Z,74.50
2022-09-13T22:13:58.620Z,76.50
2022-09-13T22:16:28.399Z,76.20
2022-09-13T22:18:58.007Z,77.70
2022-09-13T22:21:28.271Z,77.50
2022-09-13T22:23:56.821Z,77.20
2022-09-13T22:26:26.010Z,78.20
2022-09-13T22:28:55.084Z,80.60
2022-09-13T22:31:26.815Z,79.50
2022-09-13T22:33:56.042Z,79.30
2022-09-13T22:36:23.703Z,78.10
2022-09-13T22:38:54.771Z,76.90
2022-09-13T22:41:24.731Z,74.80
2022-09-13T22:43:51.792Z,73.50
2022-09-13T22:46:24.753Z,74.70
2022-09-13T22:48:54.177Z,73.90
2022-09-13T22:51:21.962Z,74.60
2022-09-13T22:53:50.316Z,75.00
2022-09-13T22:56:21.540Z,76.40
2022-09-13T22:58:52.515Z,77.40
2022-09-13T23:01:20.116Z,76.80
2022-09-13T23:03:48.041Z,77.70
2022-09-13T23:06:20.581Z,78.60
2022-09-13T23:08:52.438Z,78.60
2022-09-13T23:11:25.485Z,77.90
2022-09-13T23:13:54.796Z,78.40
2022-09-13T23:16:27.083Z,78.30
2022-09-13T23:18:55.385Z,75.30
2022-09-13T23:21:24.584Z,76.20
2022-09-13T23:23:51.720Z,77.10
2022-09-13T23:26:21.420Z,78.10
2022-09-13T23:28:53.962Z,76.90
2022-09-13T23:31:23.200Z,76.60
2022-09-13T23:33:53.387Z,78.40
2022-09-13T23:36:22.637Z,78.10
2022-09-13T23:38:52.680Z,79.40
2022-09-13T23:41:20.563Z,80.20
2022-09-13T23:43:47.721Z,79.60
2022-09-13T23:46:15.145Z,80.90
2022-09-13T23:48:43.936Z,80.10
2022-09-13T23:51:12.961Z,79.90
2022-09-13T23:53:40.826Z,79.40
2022-09-13T23:56:08.424Z,79.30
2022-09-13T23:58:36.492Z,79.30
